Time;durP1;ratioP1;P1;durP2;ratioP2;P2;SDS_P1;SDS_P2;PMS_P1;PMS_P2;Temp;Humidity;BMP_temperature;BMP_pressure;BME280_temperature;BME280_humidity;BME280_pressure;Samples;Min_cycle;Max_cycle;Signal;HPM_P1;HPM_P2
2023/05/13 00:01:17;;;;;;;11.35;5.78;;;12.20;99.90;;;;;;5061622;28;20067;-73
2023/05/13 00:03:43;;;;;;;10.60;5.43;;;12.20;99.90;;;;;;5050067;28;20069;-73
2023/05/13 00:06:08;;;;;;;11.63;5.68;;;12.10;99.90;;;;;;5043270;28;20379;-73
2023/05/13 00:08:34;;;;;;;11.27;6.13;;;12.10;99.90;;;;;;5054559;28;20123;-73
2023/05/13 00:11:00;;;;;;;12.27;6.20;;;12.10;99.90;;;;;;5063121;28;20041;-73
2023/05/13 00:13:25;;;;;;;11.80;6.15;;;12.10;99.90;;;;;;5047109;28;20087;-73
2023/05/13 00:15:52;;;;;;;11.02;5.70;;;12.00;99.90;;;;;;5069426;28;20336;-73
2023/05/13 00:18:18;;;;;;;11.13;5.90;;;12.00;99.90;;;;;;5066874;28;20117;-73
2023/05/13 00:20:43;;;;;;;10.55;6.03;;;12.00;99.90;;;;;;5045045;28;20450;-73
2023/05/13 00:23:10;;;;;;;13.98;6.68;;;12.00;99.90;;;;;;5037819;28;20067;-73
2023/05/13 00:25:36;;;;;;;10.23;6.22;;;11.90;99.90;;;;;;5059847;28;20063;-73
2023/05/13 00:28:02;;;;;;;12.55;6.35;;;11.90;99.90;;;;;;5070210;28;20040;-73
2023/05/13 00:30:28;;;;;;;10.90;6.05;;;11.80;99.90;;;;;;5040593;28;20194;-73
2023/05/13 00:32:53;;;;;;;11.40;5.75;;;11.80;99.90;;;;;;5051029;28;20439;-73
2023/05/13 00:35:19;;;;;;;11.55;6.45;;;11.80;99.90;;;;;;5045046;28;20048;-73
2023/05/13 00:37:45;;;;;;;12.40;6.18;;;11.80;99.90;;;;;;5048873;28;20036;-73
2023/05/13 00:40:18;;;;;;;12.20;6.60;;;11.80;99.90;;;;;;5036554;28;20203;-73
2023/05/13 00:42:44;;;;;;;10.90;6.10;;;11.80;99.90;;;;;;5050480;28;20063;-73
2023/05/13 00:45:11;;;;;;;11.70;6.57;;;11.70;99.90;;;;;;5047535;28;20506;-73
2023/05/13 00:47:38;;;;;;;12.88;6.68;;;11.70;99.90;;;;;;5056669;28;20103;-73
2023/05/13 00:50:05;;;;;;;13.20;6.82;;;11.70;99.90;;;;;;5065186;28;20049;-73
2023/05/13 00:52:31;;;;;;;13.38;6.65;;;11.70;99.90;;;;;;5064370;28;20135;-73
2023/05/13 00:54:57;;;;;;;13.50;6.60;;;11.70;99.90;;;;;;5052533;28;20562;-73
2023/05/13 00:57:23;;;;;;;12.32;6.45;;;11.70;99.90;;;;;;5050724;28;20048;-73
2023/05/13 00:59:49;;;;;;;14.63;6.68;;;11.70;99.90;;;;;;5066043;28;20435;-73
2023/05/13 01:02:36;;;;;;;12.32;6.85;;;11.60;99.90;;;;;;5051309;28;20045;-73
2023/05/13 01:05:10;;;;;;;13.43;6.90;;;11.60;99.90;;;;;;5064901;28;20052;-73
2023/05/13 01:08:16;;;;;;;15.30;6.97;;;11.60;99.90;;;;;;5046166;28;20047;-73
2023/05/13 01:11:00;;;;;;;11.77;6.45;;;11.60;99.90;;;;;;5049089;28;20068;-73
2023/05/13 01:13:35;;;;;;;11.88;7.18;;;11.50;99.90;;;;;;5051996;28;20636;-73
2023/05/13 01:16:17;;;;;;;14.00;6.97;;;11.50;99.90;;;;;;5050785;28;20106;-73
2023/05/13 01:18:55;;;;;;;14.95;7.13;;;11.60;99.90;;;;;;5063243;28;20059;-73
2023/05/13 01:21:25;;;;;;;11.82;7.00;;;11.50;99.90;;;;;;5061653;28;20067;-73
2023/05/13 01:23:51;;;;;;;15.70;7.25;;;11.50;99.90;;;;;;5049998;28;20051;-73
2023/05/13 01:26:17;;;;;;;13.43;6.90;;;11.50;99.90;;;;;;5053808;28;20045;-73
2023/05/13 01:28:43;;;;;;;11.43;7.07;;;11.50;99.90;;;;;;5041609;28;20048;-73
2023/05/13 01:31:10;;;;;;;13.15;7.60;;;11.60;99.90;;;;;;5058900;28;21012;-73
2023/05/13 01:33:37;;;;;;;12.95;6.75;;;11.50;99.90;;;;;;5048489;28;20109;-73
2023/05/13 01:36:03;;;;;;;16.02;7.18;;;11.50;99.90;;;;;;5039681;28;20559;-73
2023/05/13 01:38:30;;;;;;;13.52;7.18;;;11.50;99.90;;;;;;5065011;28;20062;-73
2023/05/13 01:40:58;;;;;;;13.00;7.18;;;11.50;99.90;;;;;;5067149;28;20087;-73
2023/05/13 01:43:23;;;;;;;15.98;7.72;;;11.40;99.90;;;;;;5058397;28;20649;-73
2023/05/13 01:45:50;;;;;;;13.02;7.10;;;11.40;99.90;;;;;;5038783;28;20037;-73
2023/05/13 01:48:17;;;;;;;16.02;8.45;;;11.30;99.90;;;;;;5066304;28;20448;-73
2023/05/13 01:50:43;;;;;;;17.05;8.00;;;11.30;99.90;;;;;;5038513;28;20049;-73
2023/05/13 01:53:09;;;;;;;15.60;8.23;;;11.30;99.90;;;;;;5052065;28;20061;-73
2023/05/13 01:55:35;;;;;;;15.80;8.15;;;11.20;99.90;;;;;;5050406;28;20110;-73
2023/05/13 01:58:01;;;;;;;13.13;7.63;;;11.20;99.90;;;;;;5047362;28;20112;-73
2023/05/13 02:00:26;;;;;;;13.63;7.97;;;11.20;99.90;;;;;;5035500;28;20049;-73
2023/05/13 02:02:52;;;;;;;15.10;7.53;;;11.20;99.90;;;;;;5059455;28;20072;-73
2023/05/13 02:05:18;;;;;;;13.90;7.65;;;11.20;99.90;;;;;;5037207;28;20040;-73
2023/05/13 02:07:44;;;;;;;14.32;7.82;;;11.10;99.90;;;;;;5047790;28;20048;-73
2023/05/13 02:10:10;;;;;;;14.90;8.00;;;11.10;99.90;;;;;;5070966;28;20037;-73
2023/05/13 02:12:35;;;;;;;14.38;8.65;;;11.10;99.90;;;;;;5058434;28;20032;-73
2023/05/13 02:15:01;;;;;;;16.05;8.50;;;11.10;99.90;;;;;;5063494;28;20608;-73
2023/05/13 02:17:27;;;;;;;14.63;8.77;;;11.10;99.90;;;;;;5048557;28;20100;-73
2023/05/13 02:19:52;;;;;;;14.25;8.43;;;11.10;99.90;;;;;;5051802;28;20040;-73
2023/05/13 02:22:18;;;;;;;15.23;8.27;;;11.10;99.90;;;;;;5058994;28;20043;-73
2023/05/13 02:24:43;;;;;;;14.88;8.13;;;11.10;99.90;;;;;;5055936;28;20053;-73
2023/05/13 02:27:11;;;;;;;17.70;8.60;;;11.10;99.90;;;;;;5068111;28;20579;-73
2023/05/13 02:29:37;;;;;;;13.60;8.90;;;11.00;99.90;;;;;;5060634;28;20107;-73
2023/05/13 02:32:03;;;;;;;15.20;8.45;;;11.10;99.90;;;;;;5043557;28;20162;-73
2023/05/13 02:34:29;;;;;;;13.93;8.57;;;11.00;99.90;;;;;;5060233;28;20029;-73
2023/05/13 02:36:55;;;;;;;13.10;8.32;;;11.00;99.90;;;;;;5060442;28;20040;-73
2023/05/13 02:39:20;;;;;;;15.68;9.18;;;11.00;99.90;;;;;;5055142;28;20175;-73
2023/05/13 02:41:46;;;;;;;14.48;9.20;;;11.00;99.90;;;;;;5043903;28;20124;-73
2023/05/13 02:44:12;;;;;;;16.23;8.73;;;11.00;99.90;;;;;;5080459;28;20548;-73
2023/05/13 02:46:37;;;;;;;15.00;8.30;;;11.00;99.90;;;;;;5058155;28;20289;-73
2023/05/13 02:49:03;;;;;;;14.18;9.05;;;11.00;99.90;;;;;;5049452;28;20045;-73
2023/05/13 02:51:29;;;;;;;13.57;8.40;;;10.90;99.90;;;;;;5056639;28;20067;-73
2023/05/13 02:53:54;;;;;;;18.50;9.02;;;10.90;99.90;;;;;;5064811;28;20058;-73
2023/05/13 02:56:20;;;;;;;14.63;8.73;;;10.90;99.90;;;;;;5033124;28;20045;-73
2023/05/13 02:58:46;;;;;;;16.35;9.00;;;10.90;99.90;;;;;;5060842;28;20056;-73
2023/05/13 03:01:12;;;;;;;15.20;8.85;;;10.90;99.90;;;;;;5067646;28;20052;-73
2023/05/13 03:03:38;;;;;;;15.60;9.05;;;10.90;99.90;;;;;;5051142;28;20051;-73
2023/05/13 03:06:04;;;;;;;17.00;9.93;;;10.90;99.90;;;;;;5041602;28;20047;-73
2023/05/13 03:08:30;;;;;;;18.05;9.88;;;10.90;99.90;;;;;;5061550;28;20609;-73
2023/05/13 03:10:57;;;;;;;14.60;9.30;;;10.90;99.90;;;;;;5039040;28;20608;-73
2023/05/13 03:13:23;;;;;;;14.20;9.18;;;10.90;99.90;;;;;;5062517;28;20044;-73
2023/05/13 03:15:49;;;;;;;17.40;10.02;;;10.90;99.90;;;;;;5066448;28;20063;-73
2023/05/13 03:18:15;;;;;;;16.45;9.65;;;10.90;99.90;;;;;;5038258;28;20068;-73
2023/05/13 03:20:40;;;;;;;16.35;9.40;;;10.90;99.90;;;;;;5051131;28;20044;-73
2023/05/13 03:23:06;;;;;;;14.48;9.55;;;10.90;99.90;;;;;;5051422;28;20048;-73
2023/05/13 03:25:32;;;;;;;14.38;9.73;;;10.80;99.90;;;;;;5055296;28;20120;-73
2023/05/13 03:27:58;;;;;;;16.25;9.35;;;10.90;99.90;;;;;;5059547;28;20040;-73
2023/05/13 03:30:23;;;;;;;14.70;10.15;;;10.80;99.90;;;;;;5083568;28;20044;-73
2023/05/13 03:32:49;;;;;;;17.90;10.05;;;10.80;99.90;;;;;;5053475;28;20498;-73
2023/05/13 03:35:15;;;;;;;16.50;9.60;;;10.80;99.90;;;;;;5066521;28;20033;-73
2023/05/13 03:37:40;;;;;;;13.98;9.43;;;10.80;99.90;;;;;;5061500;28;20036;-73
2023/05/13 03:40:07;;;;;;;16.45;9.73;;;10.70;99.90;;;;;;5062694;28;20040;-73
2023/05/13 03:42:32;;;;;;;17.63;10.30;;;10.70;99.90;;;;;;5058860;28;20033;-73
2023/05/13 03:44:58;;;;;;;16.02;9.80;;;10.70;99.90;;;;;;5054158;28;20590;-73
2023/05/13 03:47:24;;;;;;;17.08;10.23;;;10.70;99.90;;;;;;5045318;28;20040;-73
2023/05/13 03:49:50;;;;;;;15.70;10.02;;;10.70;99.90;;;;;;5042863;28;20045;-73
2023/05/13 03:52:15;;;;;;;21.52;9.60;;;10.60;99.90;;;;;;5061747;28;20117;-73
2023/05/13 03:54:41;;;;;;;17.17;10.07;;;10.60;99.90;;;;;;5068456;28;20044;-73
2023/05/13 03:57:07;;;;;;;15.50;9.38;;;10.60;99.90;;;;;;5069873;28;20647;-73
2023/05/13 03:59:33;;;;;;;18.33;9.85;;;10.60;99.90;;;;;;5064835;28;20044;-73
2023/05/13 04:01:59;;;;;;;15.63;10.25;;;10.70;99.90;;;;;;5051580;28;20042;-73
2023/05/13 04:04:25;;;;;;;15.13;9.23;;;10.60;99.90;;;;;;5052657;28;20075;-73
2023/05/13 04:06:51;;;;;;;17.75;9.77;;;10.70;99.90;;;;;;5052597;28;20036;-73
2023/05/13 04:09:17;;;;;;;14.60;9.80;;;10.70;99.90;;;;;;5055902;28;20047;-73
2023/05/13 04:11:42;;;;;;;14.88;9.18;;;10.70;99.90;;;;;;5071620;28;20048;-73
2023/05/13 04:14:08;;;;;;;19.05;10.10;;;10.70;99.90;;;;;;5034822;28;20125;-73
2023/05/13 04:16:34;;;;;;;16.75;8.93;;;10.70;99.90;;;;;;5068525;28;20047;-73
2023/05/13 04:19:00;;;;;;;15.25;9.45;;;10.80;99.90;;;;;;5055563;28;20101;-73
2023/05/13 04:21:26;;;;;;;19.70;9.50;;;10.80;99.90;;;;;;5023592;28;20037;-73
2023/05/13 04:23:52;;;;;;;18.55;10.18;;;10.80;99.90;;;;;;5048090;28;20493;-73
2023/05/13 04:26:17;;;;;;;16.83;9.88;;;10.80;99.90;;;;;;5055503;28;20089;-73
2023/05/13 04:28:43;;;;;;;15.30;9.18;;;10.90;99.90;;;;;;5073957;28;20086;-73
2023/05/13 04:31:11;;;;;;;18.05;9.98;;;10.90;99.90;;;;;;5052264;28;20041;-73
2023/05/13 04:33:36;;;;;;;17.77;9.05;;;11.00;99.90;;;;;;5072266;28;20039;-73
2023/05/13 04:36:02;;;;;;;15.10;9.70;;;11.00;99.90;;;;;;5049864;28;20379;-73
2023/05/13 04:38:29;;;;;;;26.00;10.32;;;11.10;99.90;;;;;;5070029;28;20055;-73
2023/05/13 04:40:55;;;;;;;16.80;9.90;;;11.20;99.90;;;;;;5059608;28;20490;-73
2023/05/13 04:43:21;;;;;;;15.95;9.23;;;11.30;99.90;;;;;;5069324;28;20043;-73
2023/05/13 04:45:47;;;;;;;16.27;9.13;;;11.30;99.90;;;;;;5058467;28;20449;-73
2023/05/13 04:48:13;;;;;;;17.30;9.07;;;11.40;99.90;;;;;;5073951;28;20052;-73
2023/05/13 04:50:46;;;;;;;14.93;8.77;;;11.40;99.90;;;;;;5068826;28;20383;-73
2023/05/13 04:53:13;;;;;;;16.10;8.93;;;11.50;99.90;;;;;;5082148;28;20324;-73
2023/05/13 04:55:39;;;;;;;14.65;8.48;;;11.60;99.90;;;;;;5037759;28;20045;-73
2023/05/13 04:58:05;;;;;;;18.42;8.90;;;11.60;99.90;;;;;;5051830;28;20132;-73
2023/05/13 05:00:31;;;;;;;15.82;9.30;;;11.70;99.90;;;;;;5070277;28;20044;-73
2023/05/13 05:02:57;;;;;;;18.55;9.38;;;11.80;99.90;;;;;;5072695;28;20079;-73
2023/05/13 05:05:23;;;;;;;14.25;8.82;;;11.80;99.90;;;;;;5055570;28;20075;-73
2023/05/13 05:07:49;;;;;;;14.10;9.10;;;;;;;;;;5045791;28;20064;-73
2023/05/13 05:10:15;;;;;;;16.10;9.20;;;12.00;99.90;;;;;;5056343;28;20040;-73
2023/05/13 05:12:41;;;;;;;16.90;9.15;;;12.00;99.90;;;;;;5064237;28;20241;-73
2023/05/13 05:15:14;;;;;;;23.48;9.30;;;12.10;99.90;;;;;;5068177;28;20350;-73
2023/05/13 05:17:41;;;;;;;15.00;8.95;;;12.20;99.90;;;;;;5050711;28;20036;-73
2023/05/13 05:20:07;;;;;;;14.95;8.98;;;12.30;99.90;;;;;;5062463;28;20040;-73
2023/05/13 05:22:35;;;;;;;15.57;8.73;;;12.30;99.90;;;;;;5065732;28;20045;-73
2023/05/13 05:25:00;;;;;;;13.32;8.93;;;12.40;99.90;;;;;;5070006;28;20044;-73
2023/05/13 05:27:26;;;;;;;14.80;8.73;;;12.50;99.90;;;;;;5036096;28;20078;-73
2023/05/13 05:29:52;;;;;;;17.70;9.02;;;12.50;99.90;;;;;;5041318;28;20077;-73
2023/05/13 05:32:18;;;;;;;13.93;8.10;;;12.60;99.90;;;;;;5054162;28;20086;-73
2023/05/13 05:34:44;;;;;;;15.32;8.57;;;12.70;99.90;;;;;;5068511;28;20036;-73
2023/05/13 05:37:09;;;;;;;16.40;8.98;;;12.70;99.90;;;;;;5038299;28;20091;-73
2023/05/13 05:39:35;;;;;;;13.30;7.75;;;12.80;99.90;;;;;;5060637;28;20042;-73
2023/05/13 05:42:01;;;;;;;15.38;8.38;;;12.90;99.90;;;;;;5062127;28;20490;-73
2023/05/13 05:44:27;;;;;;;15.55;8.45;;;13.00;99.90;;;;;;5061794;28;20032;-73
2023/05/13 05:46:53;;;;;;;14.25;8.30;;;13.10;99.90;;;;;;5045458;28;20076;-73
2023/05/13 05:49:19;;;;;;;15.02;8.43;;;13.20;99.90;;;;;;5056539;28;20043;-73
2023/05/13 05:51:44;;;;;;;12.90;8.15;;;13.30;99.90;;;;;;5065006;28;20045;-73
2023/05/13 05:54:10;;;;;;;12.48;8.32;;;13.30;99.90;;;;;;5040258;28;20131;-73
2023/05/13 05:56:36;;;;;;;12.85;8.07;;;13.40;99.90;;;;;;5050896;28;20033;-73
2023/05/13 05:59:01;;;;;;;16.02;8.27;;;13.50;99.90;;;;;;5055538;28;20170;-73
2023/05/13 06:01:32;;;;;;;14.27;8.52;;;13.60;99.90;;;;;;5057647;28;20093;-73
2023/05/13 06:03:58;;;;;;;14.30;7.97;;;13.70;99.90;;;;;;5040346;28;20044;-73
2023/05/13 06:06:24;;;;;;;15.65;8.60;;;13.80;99.90;;;;;;5054704;28;20118;-73
2023/05/13 06:08:50;;;;;;;13.90;8.27;;;13.90;99.90;;;;;;5051134;28;20127;-73
2023/05/13 06:11:15;;;;;;;14.88;7.65;;;14.00;99.90;;;;;;5051721;28;20047;-74
2023/05/13 06:13:42;;;;;;;13.13;8.13;;;14.10;99.90;;;;;;5041085;28;20508;-73
2023/05/13 06:16:08;;;;;;;13.35;7.45;;;14.20;99.90;;;;;;5052253;28;20457;-73
2023/05/13 06:18:34;;;;;;;14.02;7.65;;;14.30;99.90;;;;;;5050572;28;20037;-73
2023/05/13 06:21:00;;;;;;;15.38;7.82;;;14.40;99.90;;;;;;5062643;28;20048;-73
2023/05/13 06:23:25;;;;;;;13.25;7.50;;;14.50;99.90;;;;;;5052454;28;20469;-73
2023/05/13 06:25:51;;;;;;;14.02;7.40;;;14.60;99.90;;;;;;5051113;28;20048;-73
2023/05/13 06:28:17;;;;;;;13.65;7.57;;;14.70;99.90;;;;;;5042476;28;20036;-73
2023/05/13 06:30:43;;;;;;;13.85;7.45;;;14.80;99.90;;;;;;5039639;28;20184;-73
2023/05/13 06:33:11;;;;;;;17.17;7.80;;;14.80;99.90;;;;;;5055758;28;20036;-73
2023/05/13 06:35:37;;;;;;;15.60;7.72;;;14.90;99.90;;;;;;5048356;28;20036;-73
2023/05/13 06:38:03;;;;;;;11.93;7.35;;;15.00;99.90;;;;;;5050461;28;20050;-73
2023/05/13 06:40:28;;;;;;;13.02;7.50;;;15.10;99.90;;;;;;5029770;28;20064;-73
2023/05/13 06:42:54;;;;;;;13.57;7.60;;;15.20;99.90;;;;;;5044017;28;20105;-73
2023/05/13 06:45:22;;;;;;;13.90;7.35;;;15.30;99.90;;;;;;5050156;28;20040;-73
2023/05/13 06:47:52;;;;;;;13.07;7.28;;;15.40;99.90;;;;;;5061665;28;20115;-73
2023/05/13 06:50:18;;;;;;;14.73;6.60;;;15.40;99.90;;;;;;5060275;28;20036;-73
2023/05/13 06:52:44;;;;;;;14.70;7.47;;;15.50;99.90;;;;;;5052580;28;20105;-73
2023/05/13 06:55:10;;;;;;;12.13;7.15;;;15.60;99.90;;;;;;5053056;28;20037;-73
2023/05/13 06:57:36;;;;;;;13.95;7.22;;;15.60;99.90;;;;;;5047608;28;20032;-73
2023/05/13 07:00:02;;;;;;;12.65;6.75;;;15.70;99.90;;;;;;5043964;28;20044;-73
2023/05/13 07:02:28;;;;;;;13.07;7.10;;;15.80;99.90;;;;;;5038186;28;20048;-73
2023/05/13 07:04:53;;;;;;;13.60;6.95;;;15.90;99.90;;;;;;5043589;28;20032;-73
2023/05/13 07:07:19;;;;;;;14.60;7.18;;;16.00;99.90;;;;;;5044134;28;20066;-73
2023/05/13 07:09:45;;;;;;;15.10;7.10;;;16.00;99.90;;;;;;5050144;28;20520;-73
2023/05/13 07:12:11;;;;;;;12.85;7.22;;;16.00;99.90;;;;;;5048270;28;20041;-73
2023/05/13 07:14:36;;;;;;;15.13;6.75;;;16.00;99.90;;;;;;5052880;28;20037;-73
2023/05/13 07:17:03;;;;;;;14.35;7.25;;;16.10;99.90;;;;;;5068798;28;20041;-73
2023/05/13 07:19:28;;;;;;;10.00;6.43;;;16.30;99.90;;;;;;5044255;28;20055;-73
2023/05/13 07:21:54;;;;;;;13.75;6.60;;;16.30;99.90;;;;;;5054233;28;20470;-73
2023/05/13 07:24:20;;;;;;;12.43;6.30;;;16.50;99.90;;;;;;5056693;28;20047;-73
2023/05/13 07:26:46;;;;;;;13.57;6.45;;;16.50;99.90;;;;;;5025475;28;20039;-73
2023/05/13 07:29:11;;;;;;;12.50;7.03;;;16.60;99.90;;;;;;5049975;28;20044;-73
2023/05/13 07:31:37;;;;;;;12.77;6.40;;;16.70;99.90;;;;;;5051146;28;20482;-73
2023/05/13 07:34:03;;;;;;;10.32;5.93;;;16.80;99.90;;;;;;5047016;28;20218;-73
2023/05/13 07:36:29;;;;;;;10.45;5.88;;;16.90;99.90;;;;;;5071259;28;20474;-73
2023/05/13 07:38:55;;;;;;;13.43;6.88;;;17.00;99.90;;;;;;5043023;28;20115;-73
2023/05/13 07:41:21;;;;;;;10.48;6.38;;;17.10;99.90;;;;;;5055569;28;20036;-73
2023/05/13 07:43:46;;;;;;;11.63;5.97;;;17.10;99.90;;;;;;5048211;28;20486;-73
2023/05/13 07:46:12;;;;;;;12.65;6.50;;;17.20;99.90;;;;;;5042758;28;20036;-73
2023/05/13 07:48:38;;;;;;;11.20;6.25;;;17.30;99.90;;;;;;5060647;28;20052;-73
2023/05/13 07:51:04;;;;;;;11.88;6.22;;;17.40;99.90;;;;;;5043897;28;20131;-73
2023/05/13 07:53:30;;;;;;;11.27;5.88;;;17.40;99.90;;;;;;5043617;28;20047;-73
2023/05/13 07:55:55;;;;;;;12.70;6.30;;;17.50;99.90;;;;;;5053625;28;20041;-73
2023/05/13 07:58:21;;;;;;;11.98;6.07;;;17.50;99.90;;;;;;5043883;28;20040;-73
2023/05/13 08:00:48;;;;;;;13.25;6.13;;;17.60;99.90;;;;;;5045925;28;20325;-73
2023/05/13 08:03:15;;;;;;;12.48;5.82;;;17.60;99.90;;;;;;5062726;28;20071;-73
2023/05/13 08:05:41;;;;;;;12.43;5.38;;;17.60;99.90;;;;;;5076574;28;20106;-73
2023/05/13 08:08:07;;;;;;;11.82;5.80;;;17.70;99.90;;;;;;5066336;28;20481;-73
2023/05/13 08:10:32;;;;;;;12.32;5.68;;;17.80;99.90;;;;;;5057294;28;20044;-73
2023/05/13 08:12:59;;;;;;;11.88;5.35;;;17.80;99.90;;;;;;5058294;28;20123;-73
2023/05/13 08:15:26;;;;;;;11.65;5.55;;;17.90;99.90;;;;;;5046486;28;20032;-73
2023/05/13 08:17:52;;;;;;;10.30;5.50;;;18.00;99.90;;;;;;5054361;28;20032;-73
2023/05/13 08:20:19;;;;;;;10.73;5.18;;;18.00;99.90;;;;;;5053428;28;20115;-73
2023/05/13 08:22:45;;;;;;;12.55;5.60;;;18.00;99.90;;;;;;5015770;28;20044;-73
2023/05/13 08:25:11;;;;;;;11.02;5.07;;;18.00;99.90;;;;;;5050135;28;20101;-73
2023/05/13 08:27:37;;;;;;;9.95;5.18;;;18.10;99.90;;;;;;5053721;28;20037;-73
2023/05/13 08:30:04;;;;;;;10.98;5.15;;;18.20;99.90;;;;;;5046983;28;20429;-73
2023/05/13 08:32:29;;;;;;;12.20;5.50;;;18.20;99.90;;;;;;5053353;28;20058;-73
2023/05/13 08:34:55;;;;;;;11.45;5.22;;;18.30;99.90;;;;;;5049011;28;20482;-73
2023/05/13 08:37:21;;;;;;;10.88;5.35;;;18.40;99.90;;;;;;5053013;28;20098;-73
2023/05/13 08:39:46;;;;;;;10.43;5.10;;;18.50;99.90;;;;;;5052053;28;20090;-73
2023/05/13 08:42:18;;;;;;;15.27;5.47;;;18.60;99.90;;;;;;5038344;28;20181;-73
2023/05/13 08:44:44;;;;;;;11.57;4.60;;;18.70;99.90;;;;;;5042681;28;20455;-73
2023/05/13 08:47:35;;;;;;;12.65;4.50;;;18.80;99.90;;;;;;5050290;28;20123;-73
2023/05/13 08:50:02;;;;;;;10.82;4.85;;;18.80;99.90;;;;;;5065181;28;20036;-73
2023/05/13 08:52:27;;;;;;;9.18;4.45;;;18.90;99.90;;;;;;5041724;28;20493;-73
2023/05/13 08:54:54;;;;;;;10.63;4.07;;;18.90;99.90;;;;;;5048311;28;20053;-73
2023/05/13 08:57:20;;;;;;;10.02;4.60;;;18.90;99.90;;;;;;5045044;28;20045;-73
2023/05/13 08:59:46;;;;;;;9.45;4.43;;;19.10;99.90;;;;;;5041771;28;20111;-73
2023/05/13 09:02:12;;;;;;;9.65;4.45;;;19.10;99.90;;;;;;5047677;28;20116;-73
2023/05/13 09:04:41;;;;;;;10.68;4.70;;;19.10;99.90;;;;;;5072429;28;20449;-73
2023/05/13 09:07:07;;;;;;;14.00;4.22;;;19.20;99.90;;;;;;5055036;28;20414;-73
2023/05/13 09:09:33;;;;;;;12.23;4.50;;;19.10;99.90;;;;;;5049743;28;20036;-74
2023/05/13 09:11:59;;;;;;;12.48;4.30;;;19.20;99.90;;;;;;5061131;28;20572;-74
2023/05/13 09:14:34;;;;;;;10.55;4.35;;;19.30;99.90;;;;;;5046388;28;20059;-74
2023/05/13 09:17:00;;;;;;;9.65;5.00;;;19.30;99.90;;;;;;5049475;28;20100;-74
2023/05/13 09:19:26;;;;;;;13.52;4.68;;;19.40;99.90;;;;;;5055125;28;20048;-75
2023/05/13 09:21:53;;;;;;;12.40;5.50;;;19.50;99.90;;;;;;5041140;28;20088;-78
2023/05/13 09:24:20;;;;;;;9.80;4.70;;;19.60;99.90;;;;;;5048191;28;20358;-78
2023/05/13 09:26:47;;;;;;;12.38;5.05;;;19.60;99.90;;;;;;5054021;28;20102;-77
2023/05/13 09:29:29;;;;;;;11.90;4.97;;;19.60;99.90;;;;;;5049505;28;20571;-77
2023/05/13 09:31:57;;;;;;;9.80;5.20;;;19.60;99.90;;;;;;5043498;28;20490;-79
2023/05/13 09:34:31;;;;;;;14.20;5.13;;;19.70;99.90;;;;;;5052065;28;20032;-79
2023/05/13 09:37:05;;;;;;;11.02;5.10;;;19.80;99.90;;;;;;5055759;28;20036;-77
2023/05/13 09:39:40;;;;;;;11.18;4.70;;;19.90;99.90;;;;;;5056021;28;20032;-77
2023/05/13 09:42:17;;;;;;;11.38;4.80;;;19.90;99.90;;;;;;5061301;28;20055;-76
2023/05/13 09:44:44;;;;;;;11.10;5.45;;;20.00;99.90;;;;;;5048734;28;20127;-78
2023/05/13 09:47:13;;;;;;;11.13;4.95;;;20.00;99.90;;;;;;5062814;28;20044;-76
2023/05/13 09:49:44;;;;;;;11.38;5.40;;;20.10;99.90;;;;;;5051432;28;20139;-78
2023/05/13 09:52:10;;;;;;;11.95;5.00;;;20.10;99.90;;;;;;5047560;28;20174;-78
2023/05/13 09:54:37;;;;;;;11.13;5.15;;;20.00;99.90;;;;;;5049581;28;20057;-77
2023/05/13 09:57:04;;;;;;;11.57;5.15;;;19.90;99.90;;;;;;5039045;28;20045;-77
2023/05/13 09:59:33;;;;;;;11.57;4.50;;;20.00;99.90;;;;;;5055915;28;20098;-77
2023/05/13 10:02:04;;;;;;;12.50;5.38;;;20.10;99.90;;;;;;5055185;28;20557;-77
2023/05/13 10:04:30;;;;;;;13.63;5.20;;;20.20;99.90;;;;;;5061073;28;20040;-77
2023/05/13 10:06:58;;;;;;;12.57;5.15;;;20.20;99.90;;;;;;5021239;28;20036;-78
2023/05/13 10:09:26;;;;;;;10.13;5.00;;;20.20;99.90;;;;;;5056279;28;20049;-78
2023/05/13 10:11:54;;;;;;;10.68;5.07;;;20.20;99.90;;;;;;5049463;28;20068;-78
2023/05/13 10:14:20;;;;;;;13.07;5.30;;;20.30;99.90;;;;;;5047450;28;20071;-77
2023/05/13 10:16:47;;;;;;;10.70;5.05;;;20.40;99.90;;;;;;5048743;28;20536;-82
2023/05/13 10:19:13;;;;;;;10.30;5.25;;;20.40;99.90;;;;;;5030810;28;20040;-77
2023/05/13 10:21:40;;;;;;;12.23;5.13;;;20.40;99.90;;;;;;5050217;28;20048;-78
2023/05/13 10:24:07;;;;;;;16.73;5.70;;;20.50;99.90;;;;;;5054273;28;20093;-78
2023/05/13 10:26:33;;;;;;;11.77;5.55;;;20.50;99.90;;;;;;5039571;28;20087;-79
2023/05/13 10:29:00;;;;;;;11.52;5.38;;;20.60;99.90;;;;;;5066594;28;20549;-84
2023/05/13 10:31:27;;;;;;;14.82;5.25;;;20.60;99.90;;;;;;5047745;28;20125;-76
2023/05/13 10:33:53;;;;;;;10.63;5.25;;;20.70;99.90;;;;;;5037614;28;20037;-76
2023/05/13 10:36:30;;;;;;;10.70;4.82;;;20.70;99.90;;;;;;5042854;28;21944;-74
2023/05/13 10:39:22;;;;;;;11.30;4.70;;;20.80;99.90;;;;;;5060574;28;20456;-75
2023/05/13 10:42:39;;;;;;;11.90;4.97;;;20.80;99.90;;;;;;5056872;28;20083;-74
2023/05/13 10:45:06;;;;;;;11.57;4.80;;;20.90;99.90;;;;;;5001180;28;20718;-74
2023/05/13 10:47:33;;;;;;;11.77;4.50;;;20.90;99.90;;;;;;5048336;28;20072;-75
2023/05/13 10:50:03;;;;;;;10.73;4.85;;;21.10;99.90;;;;;;5069850;28;20079;-75
2023/05/13 10:52:45;;;;;;;9.43;4.97;;;21.20;99.90;;;;;;5052525;28;20620;-75
2023/05/13 10:55:19;;;;;;;10.82;5.03;;;21.30;99.90;;;;;;5045043;28;20461;-73
2023/05/13 10:58:03;;;;;;;10.05;4.88;;;21.20;99.90;;;;;;5061177;28;20472;-74
2023/05/13 11:00:30;;;;;;;13.65;4.80;;;21.20;99.90;;;;;;5052905;28;20418;-73
2023/05/13 11:02:56;;;;;;;12.20;4.13;;;21.20;99.90;;;;;;5049511;28;20182;-73
2023/05/13 11:05:21;;;;;;;9.93;4.18;;;21.20;99.90;;;;;;5027491;28;20066;-73
2023/05/13 11:07:55;;;;;;;9.23;3.78;;;21.30;99.90;;;;;;5044546;28;20469;-75
2023/05/13 11:10:28;;;;;;;10.77;4.03;;;21.30;99.90;;;;;;5043359;28;20040;-73
2023/05/13 11:13:08;;;;;;;12.65;3.72;;;21.40;99.90;;;;;;5052861;28;20032;-74
2023/05/13 11:15:44;;;;;;;10.10;3.90;;;21.50;99.90;;;;;;5063784;28;20037;-73
2023/05/13 11:18:12;;;;;;;10.60;4.40;;;21.60;99.90;;;;;;5045386;28;20437;-77
2023/05/13 11:20:38;;;;;;;9.68;3.80;;;21.60;99.90;;;;;;5040459;28;20050;-76
2023/05/13 11:23:03;;;;;;;9.80;3.88;;;21.60;99.90;;;;;;5056650;28;20454;-77
2023/05/13 11:25:29;;;;;;;10.35;4.32;;;21.70;99.90;;;;;;5053046;28;20074;-74
2023/05/13 11:27:55;;;;;;;10.18;4.28;;;21.70;99.90;;;;;;5050972;28;20189;-77
2023/05/13 11:30:27;;;;;;;9.85;4.15;;;21.80;99.90;;;;;;5054796;28;20044;-77
2023/05/13 11:32:55;;;;;;;9.75;4.30;;;21.70;99.90;;;;;;5039539;28;20182;-76
2023/05/13 11:35:33;;;;;;;11.57;4.35;;;21.70;99.90;;;;;;5047085;28;20062;-77
2023/05/13 11:38:00;;;;;;;8.80;3.50;;;21.80;99.90;;;;;;5063756;28;20406;-76
2023/05/13 11:40:35;;;;;;;9.50;3.45;;;21.70;99.90;;;;;;5056935;28;20093;-74
2023/05/13 11:43:03;;;;;;;9.10;3.63;;;21.80;99.90;;;;;;5026151;28;20134;-75
2023/05/13 11:45:30;;;;;;;11.30;3.70;;;21.80;99.90;;;;;;5050725;28;20223;-74
2023/05/13 11:47:56;;;;;;;12.50;4.70;;;21.80;99.90;;;;;;5055749;28;20044;-78
2023/05/13 11:50:26;;;;;;;11.43;5.30;;;21.70;99.90;;;;;;5054369;28;20055;-81
2023/05/13 11:52:55;;;;;;;13.55;5.00;;;21.70;99.90;;;;;;5055674;28;20502;-79
2023/05/13 11:55:33;;;;;;;13.60;5.10;;;21.60;99.90;;;;;;5044218;28;20055;-79
2023/05/13 11:57:59;;;;;;;12.07;4.50;;;21.70;99.90;;;;;;5049383;28;20027;-80
2023/05/13 12:00:26;;;;;;;10.57;3.90;;;21.70;99.90;;;;;;5025474;28;20090;-81
2023/05/13 12:02:52;;;;;;;8.82;3.70;;;21.70;99.90;;;;;;5045429;28;20118;-80
2023/05/13 12:05:19;;;;;;;11.15;4.47;;;;;;;;;;5053183;28;20041;-80
2023/05/13 12:07:45;;;;;;;11.35;4.00;;;21.80;99.90;;;;;;5060081;28;20039;-81
2023/05/13 12:10:10;;;;;;;10.57;4.20;;;21.80;99.90;;;;;;5041732;28;20032;-84
2023/05/13 12:12:39;;;;;;;12.55;4.72;;;21.80;99.90;;;;;;5056916;28;20039;-83
2023/05/13 12:15:10;;;;;;;10.63;3.58;;;21.80;99.90;;;;;;5067862;28;20094;-83
2023/05/13 12:17:36;;;;;;;9.38;3.20;;;21.90;99.90;;;;;;5047542;28;20032;-81
2023/05/13 12:20:14;;;;;;;9.88;3.50;;;22.00;99.90;;;;;;5061877;28;20066;-83
2023/05/13 12:22:42;;;;;;;9.55;3.53;;;22.10;99.90;;;;;;5055477;28;20036;-81
2023/05/13 12:25:46;;;;;;;11.98;5.13;;;22.10;99.90;;;;;;5054459;28;20085;-82
2023/05/13 12:28:25;;;;;;;11.00;5.10;;;22.10;99.90;;;;;;5059108;28;20036;-82
2023/05/13 12:30:57;;;;;;;12.35;3.80;;;22.10;99.90;;;;;;5064480;28;20059;-82
2023/05/13 12:33:23;;;;;;;9.70;3.13;;;22.10;99.90;;;;;;5044761;28;20147;-83
2023/05/13 12:35:50;;;;;;;9.50;3.15;;;22.10;99.90;;;;;;5053029;28;20036;-83
2023/05/13 12:38:22;;;;;;;10.40;4.28;;;22.00;99.90;;;;;;5061474;28;20040;-83
2023/05/13 12:40:49;;;;;;;10.20;5.28;;;21.60;99.90;;;;;;5065644;28;20111;-85